createdAt,value
2023-02-24T00:02:15.116Z,29.65
2023-02-24T00:04:42.848Z,25.38
2023-02-24T00:07:12.746Z,30.20
2023-02-24T00:09:40.608Z,30.42
2023-02-24T00:12:13.085Z,24.00
2023-02-24T00:14:43.192Z,29.02
2023-02-24T00:17:14.418Z,31.35
2023-02-24T00:19:42.600Z,29.38
2023-02-24T00:22:10.760Z,32.72
2023-02-24T00:24:38.492Z,27.88
2023-02-24T00:27:12.110Z,28.40
2023-02-24T00:29:41.979Z,29.08
2023-02-24T00:32:12.990Z,26.60
2023-02-24T00:34:41.350Z,23.13
2023-02-24T00:37:09.393Z,24.50
2023-02-24T00:39:37.390Z,26.23
2023-02-24T00:42:06.194Z,23.92
2023-02-24T00:44:39.143Z,27.05
2023-02-24T00:47:08.414Z,31.23
2023-02-24T00:49:42.158Z,36.95
2023-02-24T00:52:13.873Z,40.45
2023-02-24T00:54:45.954Z,45.97
2023-02-24T00:57:14.356Z,32.30
2023-02-24T00:59:42.576Z,34.63
2023-02-24T01:02:11.542Z,31.90
2023-02-24T01:04:39.348Z,28.15
2023-02-24T01:07:11.234Z,32.58
2023-02-24T01:09:41.500Z,32.78
2023-02-24T01:15:11.255Z,40.72
2023-02-24T01:17:39.370Z,35.90
2023-02-24T01:20:19.106Z,32.85
2023-02-24T01:22:57.701Z,24.08
2023-02-24T01:25:25.334Z,27.85
2023-02-24T01:27:54.081Z,30.20
2023-02-24T01:30:21.760Z,28.52
2023-02-24T01:32:49.579Z,27.00
2023-02-24T01:35:17.762Z,20.92
2023-02-24T01:37:45.845Z,24.45
2023-02-24T01:40:21.181Z,25.65
2023-02-24T01:42:49.525Z,29.52
2023-02-24T01:45:21.401Z,30.92
2023-02-24T01:47:49.520Z,28.02
2023-02-24T01:50:21.664Z,25.92
2023-02-24T01:52:53.029Z,27.10
2023-02-24T01:55:43.689Z,34.60
2023-02-24T01:58:19.083Z,35.30
2023-02-24T02:00:48.130Z,34.28
2023-02-24T02:03:29.755Z,29.98
2023-02-24T02:06:02.616Z,29.80
2023-02-24T02:08:30.328Z,27.05
2023-02-24T02:11:05.073Z,24.65
2023-02-24T02:13:35.953Z,28.98
2023-02-24T02:16:19.827Z,27.83
2023-02-24T02:19:14.114Z,25.75
2023-02-24T02:21:59.321Z,20.20
2023-02-24T02:24:32.366Z,22.88
2023-02-24T02:27:29.494Z,23.60
2023-02-24T02:30:45.681Z,29.48
2023-02-24T02:33:58.048Z,36.28
2023-02-24T02:36:51.670Z,36.97
2023-02-24T02:39:40.846Z,36.17
2023-02-24T02:42:25.668Z,37.67
2023-02-24T02:45:17.828Z,38.25
2023-02-24T02:47:55.218Z,41.85
2023-02-24T02:50:36.028Z,39.50
2023-02-24T02:53:12.495Z,37.42
2023-02-24T02:55:53.558Z,39.88
2023-02-24T02:58:26.392Z,35.22
2023-02-24T03:01:04.607Z,34.47
2023-02-24T03:03:46.681Z,32.10
2023-02-24T03:06:33.535Z,28.60
2023-02-24T03:09:18.211Z,31.45
2023-02-24T03:11:55.820Z,29.02
2023-02-24T03:14:37.631Z,16.85
2023-02-24T03:17:16.359Z,17.73
2023-02-24T03:19:49.916Z,26.48
2023-02-24T03:22:26.032Z,14.43
2023-02-24T03:24:53.792Z,18.52
2023-02-24T03:27:36.274Z,22.52
2023-02-24T03:30:07.516Z,25.17
2023-02-24T03:32:51.404Z,23.15
2023-02-24T03:35:23.423Z,23.20
2023-02-24T03:37:51.336Z,22.73
2023-02-24T03:40:20.892Z,23.25
2023-02-24T03:42:51.875Z,31.63
2023-02-24T03:45:22.936Z,28.10
2023-02-24T03:47:54.184Z,28.48
2023-02-24T03:50:22.707Z,32.95
2023-02-24T03:52:56.765Z,30.13
2023-02-24T03:56:11.219Z,31.13
2023-02-24T03:58:41.981Z,41.55
2023-02-24T04:01:46.751Z,33.40
2023-02-24T04:04:35.549Z,38.95
2023-02-24T04:09:50.352Z,47.97
2023-02-24T04:12:26.972Z,50.53
2023-02-24T04:15:10.724Z,41.70
2023-02-24T04:17:49.590Z,33.45
2023-02-24T04:20:20.549Z,36.63
2023-02-24T04:22:51.998Z,34.08
2023-02-24T04:25:27.655Z,34.38
2023-02-24T04:27:58.527Z,28.85
2023-02-24T04:30:29.859Z,29.27
2023-02-24T04:33:00.311Z,33.55
2023-02-24T04:35:28.305Z,35.38
2023-02-24T04:37:56.027Z,35.08
2023-02-24T04:40:23.754Z,35.10
2023-02-24T04:42:52.201Z,35.65
2023-02-24T04:45:31.861Z,37.25
2023-02-24T04:48:02.226Z,31.90
2023-02-24T04:50:39.114Z,38.33
2023-02-24T04:53:15.479Z,40.03
2023-02-24T04:55:48.859Z,33.80
2023-02-24T04:58:28.216Z,34.50
2023-02-24T05:00:56.124Z,31.73
2023-02-24T05:03:28.138Z,33.17
2023-02-24T05:06:00.349Z,33.35
2023-02-24T05:08:29.547Z,33.88
2023-02-24T05:10:58.839Z,38.35
2023-02-24T05:13:28.162Z,26.30
2023-02-24T05:15:56.777Z,11.90
2023-02-24T05:18:25.746Z,12.40
2023-02-24T05:21:15.800Z,10.55
2023-02-24T05:23:47.248Z,12.20
2023-02-24T05:26:18.055Z,8.55
2023-02-24T05:28:49.385Z,9.07
2023-02-24T05:31:20.230Z,6.55
2023-02-24T05:33:54.629Z,11.55
2023-02-24T05:36:22.870Z,9.95
2023-02-24T05:38:57.984Z,9.63
2023-02-24T05:41:35.841Z,9.27
2023-02-24T05:44:08.673Z,8.15
2023-02-24T05:46:40.656Z,7.30
2023-02-24T05:49:27.013Z,9.77
2023-02-24T05:51:56.877Z,12.27
2023-02-24T05:54:29.716Z,12.40
2023-02-24T05:57:00.512Z,28.95
2023-02-24T05:59:32.897Z,21.90
2023-02-24T06:02:02.484Z,22.40
2023-02-24T06:04:39.836Z,19.98
2023-02-24T06:07:14.390Z,15.13
2023-02-24T06:09:45.087Z,22.02
2023-02-24T06:12:16.420Z,15.35
2023-02-24T06:14:45.152Z,23.15
2023-02-24T06:17:17.018Z,18.08
2023-02-24T06:19:45.204Z,19.52
2023-02-24T06:22:15.017Z,25.48
2023-02-24T06:24:45.832Z,17.08
2023-02-24T06:27:21.588Z,9.55
2023-02-24T06:29:50.531Z,8.95
2023-02-24T06:32:23.795Z,8.23
2023-02-24T06:34:52.200Z,17.20
2023-02-24T06:37:20.000Z,17.83
2023-02-24T06:39:48.098Z,12.75
2023-02-24T06:42:15.880Z,19.88
2023-02-24T06:44:43.510Z,18.08
2023-02-24T06:47:14.785Z,10.77
2023-02-24T06:49:44.805Z,6.70
2023-02-24T06:52:18.615Z,11.85
2023-02-24T06:54:49.569Z,14.65
2023-02-24T06:57:17.818Z,18.92
2023-02-24T06:59:46.321Z,18.83
2023-02-24T07:02:14.582Z,14.35
2023-02-24T07:04:44.020Z,25.38
2023-02-24T07:07:14.521Z,16.92
2023-02-24T07:09:43.035Z,20.27
2023-02-24T07:12:12.720Z,21.67
2023-02-24T07:14:40.776Z,28.88
2023-02-24T07:17:14.770Z,27.38
2023-02-24T07:19:44.024Z,31.58
2023-02-24T07:22:14.824Z,36.75
2023-02-24T07:24:46.514Z,28.75
2023-02-24T07:27:22.336Z,28.10
2023-02-24T07:29:53.359Z,33.42
2023-02-24T07:32:25.508Z,34.20
2023-02-24T07:34:53.383Z,32.63
2023-02-24T07:37:21.414Z,26.58
2023-02-24T07:39:49.202Z,24.00
2023-02-24T07:42:16.973Z,36.13
2023-02-24T07:44:46.635Z,36.17
2023-02-24T07:47:16.178Z,28.88
2023-02-24T07:49:45.645Z,40.15
2023-02-24T07:52:13.558Z,38.92
2023-02-24T07:54:41.330Z,41.08
2023-02-24T07:57:14.445Z,43.58
2023-02-24T07:59:45.749Z,45.22
2023-02-24T08:02:14.004Z,41.30
2023-02-24T08:04:44.529Z,48.83
2023-02-24T08:07:14.594Z,40.35
2023-02-24T08:12:23.091Z,43.67
2023-02-24T08:14:53.558Z,46.65
2023-02-24T08:17:26.507Z,37.88
2023-02-24T08:20:28.770Z,38.22
2023-02-24T08:22:59.612Z,37.22
2023-02-24T08:25:36.093Z,40.67
2023-02-24T08:28:11.806Z,40.20
2023-02-24T08:30:45.934Z,38.25
2023-02-24T08:33:21.391Z,42.55
2023-02-24T08:35:53.115Z,44.30
2023-02-24T08:38:26.561Z,44.90
2023-02-24T08:40:55.938Z,37.67
2023-02-24T08:43:30.255Z,28.70
2023-02-24T08:46:33.022Z,29.33
2023-02-24T08:49:01.378Z,27.02
2023-02-24T08:51:34.971Z,36.35
2023-02-24T08:54:11.204Z,44.80
2023-02-24T08:56:43.831Z,43.83
2023-02-24T08:59:29.433Z,42.80
2023-02-24T09:02:19.091Z,39.95
2023-02-24T09:04:47.210Z,48.17
2023-02-24T09:07:35.580Z,47.08
2023-02-24T09:10:11.648Z,48.58
2023-02-24T09:12:42.369Z,58.10
2023-02-24T09:15:11.377Z,53.80
2023-02-24T09:17:50.230Z,50.83
2023-02-24T09:20:39.376Z,46.60
2023-02-24T09:23:08.907Z,48.08
2023-02-24T09:25:41.226Z,51.03
2023-02-24T09:28:17.606Z,59.58
2023-02-24T09:30:56.409Z,65.22
2023-02-24T09:33:39.214Z,66.88
2023-02-24T09:36:10.415Z,58.40
2023-02-24T09:39:01.171Z,64.15
2023-02-24T09:41:53.605Z,60.78
2023-02-24T09:44:38.018Z,62.10
2023-02-24T09:47:18.953Z,55.95
2023-02-24T09:49:56.380Z,55.35
2023-02-24T09:52:42.477Z,63.25
2023-02-24T09:55:25.674Z,65.68
2023-02-24T09:58:15.365Z,67.45
2023-02-24T10:01:21.058Z,61.92
2023-02-24T10:03:51.279Z,57.28
2023-02-24T10:06:35.338Z,56.78
2023-02-24T10:09:33.768Z,59.28
2023-02-24T10:12:19.340Z,57.78
2023-02-24T10:15:44.243Z,52.75
2023-02-24T10:18:37.755Z,49.20
2023-02-24T10:21:06.614Z,49.60
2023-02-24T10:24:15.014Z,55.42
2023-02-24T10:27:00.690Z,57.20
2023-02-24T10:29:36.454Z,62.10
2023-02-24T10:32:23.676Z,63.67
2023-02-24T10:34:52.292Z,61.33
2023-02-24T10:37:29.056Z,65.43
2023-02-24T10:39:59.581Z,73.78
2023-02-24T10:45:17.348Z,75.32
2023-02-24T10:48:01.593Z,78.57
2023-02-24T10:50:55.012Z,73.35
2023-02-24T10:53:35.017Z,72.45
2023-02-24T10:56:24.441Z,72.18
2023-02-24T10:59:38.047Z,70.43
2023-02-24T11:02:30.027Z,74.55
2023-02-24T11:04:58.513Z,67.38
2023-02-24T11:07:34.664Z,73.18
2023-02-24T11:10:11.322Z,71.38
2023-02-24T11:13:12.413Z,82.20
2023-02-24T11:18:34.058Z,77.25
2023-02-24T11:21:03.643Z,76.07
2023-02-24T11:23:42.252Z,70.18
2023-02-24T11:26:27.448Z,74.60
2023-02-24T11:29:04.213Z,75.22
2023-02-24T11:32:01.839Z,73.13
2023-02-24T11:34:33.344Z,70.20
2023-02-24T11:37:16.445Z,56.13
2023-02-24T11:39:53.600Z,62.03
2023-02-24T11:42:46.311Z,66.78
2023-02-24T11:45:23.068Z,62.83
2023-02-24T11:48:16.091Z,59.40
2023-02-24T11:50:53.341Z,61.17
2023-02-24T11:53:41.256Z,56.03
2023-02-24T11:56:27.222Z,63.45
2023-02-24T11:59:19.172Z,49.38
2023-02-24T12:02:08.157Z,47.00
2023-02-24T12:05:09.896Z,45.20
2023-02-24T12:07:42.637Z,46.72
2023-02-24T12:10:27.580Z,41.17
2023-02-24T12:13:37.231Z,45.95
2023-02-24T12:16:11.234Z,39.80
2023-02-24T12:18:52.432Z,29.50
2023-02-24T12:21:35.669Z,37.95
2023-02-24T12:24:08.599Z,56.03
2023-02-24T12:27:03.706Z,23.98
2023-02-24T12:29:34.804Z,37.13
2023-02-24T12:32:21.201Z,16.08
2023-02-24T12:34:49.984Z,32.53
2023-02-24T12:37:25.641Z,30.40
2023-02-24T12:40:19.828Z,30.73
2023-02-24T12:43:19.954Z,30.60
2023-02-24T12:46:06.262Z,54.30
2023-02-24T12:49:09.487Z,50.00
2023-02-24T12:51:56.778Z,37.75
2023-02-24T12:54:53.180Z,33.10
2023-02-24T12:57:39.578Z,36.40
2023-02-24T13:00:32.700Z,38.20
2023-02-24T13:03:19.349Z,43.47
2023-02-24T13:05:58.484Z,36.28
2023-02-24T13:08:56.788Z,42.30
2023-02-24T13:11:49.732Z,36.08
2023-02-24T13:14:38.637Z,46.70
2023-02-24T13:17:12.969Z,35.78
2023-02-24T13:19:42.124Z,38.25
2023-02-24T13:22:12.695Z,42.33
2023-02-24T13:24:57.106Z,48.83
2023-02-24T13:27:35.883Z,61.35
2023-02-24T13:30:12.397Z,56.42
2023-02-24T13:32:42.936Z,56.25
2023-02-24T13:35:18.233Z,54.55
2023-02-24T13:37:47.568Z,48.25
2023-02-24T13:40:24.112Z,51.28
2023-02-24T13:42:57.913Z,53.85
2023-02-24T13:45:30.912Z,52.40
2023-02-24T13:48:28.495Z,48.72
2023-02-24T13:51:11.465Z,47.92
2023-02-24T13:53:42.117Z,48.10
2023-02-24T13:56:34.352Z,32.15
2023-02-24T13:59:05.326Z,37.13
2023-02-24T14:01:45.993Z,35.17
2023-02-24T14:04:29.513Z,31.88
2023-02-24T14:06:59.792Z,14.88
2023-02-24T14:09:39.596Z,20.75
2023-02-24T14:12:28.793Z,21.10
2023-02-24T14:14:56.771Z,16.77
2023-02-24T14:17:34.800Z,20.52
2023-02-24T14:20:09.402Z,26.45
2023-02-24T14:22:48.618Z,23.17
2023-02-24T14:25:18.037Z,22.35
2023-02-24T14:27:48.774Z,19.48
2023-02-24T14:30:46.380Z,24.55
2023-02-24T14:33:25.552Z,23.55
2023-02-24T14:35:53.378Z,22.38
2023-02-24T14:38:36.858Z,17.98
2023-02-24T14:41:09.021Z,19.33
2023-02-24T14:43:42.127Z,21.90
2023-02-24T14:46:10.624Z,18.45
2023-02-24T14:48:38.306Z,17.35
2023-02-24T14:51:06.088Z,17.75
2023-02-24T14:53:35.977Z,16.73
2023-02-24T14:56:06.167Z,20.23
2023-02-24T14:58:45.867Z,16.55
2023-02-24T15:01:21.535Z,19.65
2023-02-24T15:03:55.826Z,14.02
2023-02-24T15:06:29.812Z,18.88
2023-02-24T15:09:02.866Z,18.42
2023-02-24T15:11:37.553Z,22.00
2023-02-24T15:14:06.427Z,20.85
2023-02-24T15:16:38.025Z,19.05
2023-02-24T15:19:09.226Z,19.15
2023-02-24T15:21:41.416Z,22.63
2023-02-24T15:24:19.816Z,19.05
2023-02-24T15:27:01.582Z,21.77
2023-02-24T15:29:30.481Z,31.00
2023-02-24T15:32:00.792Z,27.20
2023-02-24T15:34:32.690Z,30.75
2023-02-24T15:37:14.209Z,46.53
2023-02-24T15:39:44.668Z,16.40
2023-02-24T15:42:28.479Z,20.90
2023-02-24T15:45:27.143Z,18.27
2023-02-24T15:47:57.133Z,15.20
2023-02-24T15:50:25.516Z,23.65
2023-02-24T15:52:57.618Z,20.10
2023-02-24T15:55:25.502Z,11.00
2023-02-24T15:58:03.753Z,12.73
2023-02-24T16:00:31.598Z,16.83
2023-02-24T16:03:02.949Z,16.38
2023-02-24T16:05:30.832Z,15.55
2023-02-24T16:07:58.653Z,13.20
2023-02-24T16:10:29.051Z,19.45
2023-02-24T16:13:01.016Z,11.55
2023-02-24T16:15:39.399Z,17.48
2023-02-24T16:18:20.957Z,17.98
2023-02-24T16:20:54.820Z,18.25
2023-02-24T16:23:23.185Z,11.85
2023-02-24T16:25:54.011Z,19.92
2023-02-24T16:28:22.891Z,23.23
2023-02-24T16:30:52.031Z,22.02
2023-02-24T16:33:22.648Z,23.42
2023-02-24T16:35:53.823Z,19.25
2023-02-24T16:38:28.148Z,19.48
2023-02-24T16:40:56.726Z,22.50
2023-02-24T16:43:24.995Z,19.25
2023-02-24T16:45:55.134Z,17.65
2023-02-24T16:50:50.750Z,21.60
2023-02-24T16:53:20.544Z,20.02
2023-02-24T16:55:48.814Z,24.48
2023-02-24T16:58:16.581Z,16.58
2023-02-24T17:00:47.328Z,14.20
2023-02-24T17:03:20.872Z,11.20
2023-02-24T17:05:48.948Z,14.65
2023-02-24T17:08:16.882Z,9.90
2023-02-24T17:10:45.354Z,10.15
2023-02-24T17:13:13.711Z,15.38
2023-02-24T17:15:41.495Z,12.77
2023-02-24T17:18:09.563Z,17.52
2023-02-24T17:20:42.060Z,24.58
2023-02-24T17:23:11.499Z,18.75
2023-02-24T17:25:39.317Z,35.50
2023-02-24T17:28:07.414Z,34.22
2023-02-24T17:30:36.129Z,24.45
2023-02-24T17:33:04.335Z,27.25
2023-02-24T17:35:32.661Z,32.70
2023-02-24T17:38:02.953Z,32.38
2023-02-24T17:40:30.806Z,33.92
2023-02-24T17:42:59.164Z,34.53
2023-02-24T17:45:27.256Z,36.65
2023-02-24T17:47:54.976Z,43.25
2023-02-24T17:50:22.761Z,41.15
2023-02-24T17:52:50.719Z,48.80
2023-02-24T17:55:18.587Z,47.28
2023-02-24T17:57:46.302Z,30.55
2023-02-24T18:00:15.964Z,25.17
2023-02-24T18:02:43.905Z,32.70
2023-02-24T18:05:12.015Z,33.35
2023-02-24T18:07:39.806Z,26.65
2023-02-24T18:10:07.975Z,35.38
2023-02-24T18:12:35.549Z,31.95
2023-02-24T18:15:08.793Z,27.50
2023-02-24T18:17:37.676Z,37.28
2023-02-24T18:20:07.085Z,36.75
2023-02-24T18:22:34.722Z,36.20
2023-02-24T18:25:02.652Z,40.33
2023-02-24T18:27:30.722Z,32.85
2023-02-24T18:29:58.588Z,34.20
2023-02-24T18:32:26.615Z,37.42
2023-02-24T18:34:54.509Z,38.28
2023-02-24T18:37:22.551Z,37.08
2023-02-24T18:39:53.233Z,39.70
2023-02-24T18:42:21.188Z,27.67
2023-02-24T18:44:48.894Z,29.38
2023-02-24T18:47:16.620Z,29.45
2023-02-24T18:49:45.446Z,23.92
2023-02-24T18:52:13.331Z,28.48
2023-02-24T18:54:41.329Z,29.80
2023-02-24T18:57:09.917Z,33.15
2023-02-24T18:59:37.703Z,25.23
2023-02-24T19:02:05.586Z,35.67
2023-02-24T19:04:33.985Z,28.13
2023-02-24T19:07:01.744Z,28.90
2023-02-24T19:09:29.598Z,35.13
2023-02-24T19:11:57.300Z,24.23
2023-02-24T19:14:24.920Z,28.33
2023-02-24T19:16:53.145Z,24.38
2023-02-24T19:19:22.806Z,24.08
2023-02-24T19:21:53.302Z,28.17
2023-02-24T19:24:20.884Z,23.50
2023-02-24T19:26:51.223Z,30.73
2023-02-24T19:29:21.371Z,28.45
2023-02-24T19:34:23.759Z,45.55
2023-02-24T19:36:51.266Z,36.95
2023-02-24T19:39:18.959Z,40.50
2023-02-24T19:41:49.229Z,33.28
2023-02-24T19:44:17.234Z,36.45
2023-02-24T19:46:45.195Z,31.67
2023-02-24T19:49:12.979Z,39.40
2023-02-24T19:51:40.961Z,32.25
2023-02-24T19:54:08.681Z,34.63
2023-02-24T19:56:37.090Z,34.30
2023-02-24T19:59:07.016Z,27.67
2023-02-24T20:01:34.947Z,33.53
2023-02-24T20:04:03.370Z,27.13
2023-02-24T20:06:36.581Z,20.08
2023-02-24T20:09:11.659Z,32.10
2023-02-24T20:11:39.870Z,24.23
2023-02-24T20:14:08.196Z,20.08
2023-02-24T20:16:37.436Z,26.95
2023-02-24T20:19:06.443Z,30.92
2023-02-24T20:21:35.170Z,25.77
2023-02-24T20:24:04.477Z,32.03
2023-02-24T20:26:32.311Z,28.98
2023-02-24T20:29:01.080Z,28.92
2023-02-24T20:31:28.800Z,35.50
2023-02-24T20:33:56.712Z,35.10
2023-02-24T20:36:26.494Z,42.08
2023-02-24T20:38:54.601Z,33.00
2023-02-24T20:41:24.024Z,38.92
2023-02-24T20:43:51.625Z,39.65
2023-02-24T20:46:37.483Z,32.42
2023-02-24T20:49:06.825Z,34.03
2023-02-24T20:51:35.732Z,32.25
2023-02-24T20:54:03.513Z,27.13
2023-02-24T20:56:34.184Z,24.98
2023-02-24T20:59:04.736Z,25.45
2023-02-24T21:01:32.973Z,29.45
2023-02-24T21:04:00.688Z,27.10
2023-02-24T21:06:28.750Z,29.77
2023-02-24T21:08:56.770Z,28.48
2023-02-24T21:11:24.713Z,25.52
2023-02-24T21:13:52.706Z,30.40
2023-02-24T21:16:21.297Z,28.38
2023-02-24T21:18:50.555Z,22.02
2023-02-24T21:21:19.866Z,25.08
2023-02-24T21:23:48.179Z,25.50
2023-02-24T21:26:16.142Z,13.10
2023-02-24T21:28:44.039Z,22.02
2023-02-24T21:31:14.432Z,22.85
2023-02-24T21:33:42.429Z,16.42
2023-02-24T21:36:13.557Z,24.38
2023-02-24T21:38:41.476Z,23.52
2023-02-24T21:41:10.187Z,42.42
2023-02-24T21:43:38.060Z,38.28
2023-02-24T21:46:06.961Z,42.10
2023-02-24T21:48:34.644Z,34.60
2023-02-24T21:51:09.533Z,38.50
2023-02-24T21:53:39.455Z,36.92
2023-02-24T21:56:11.336Z,36.78
2023-02-24T21:58:39.911Z,31.80
2023-02-24T22:01:13.425Z,29.35
2023-02-24T22:03:41.300Z,26.75
2023-02-24T22:06:09.931Z,30.80
2023-02-24T22:08:39.847Z,26.88
2023-02-24T22:11:07.612Z,28.75
2023-02-24T22:13:35.304Z,28.80
2023-02-24T22:16:05.861Z,31.02
2023-02-24T22:18:34.211Z,31.83
2023-02-24T22:21:07.082Z,33.47
2023-02-24T22:23:34.761Z,37.08
2023-02-24T22:26:07.222Z,34.85
2023-02-24T22:28:35.510Z,34.65
2023-02-24T22:31:03.411Z,31.70
2023-02-24T22:33:31.870Z,32.22
2023-02-24T22:36:04.286Z,36.13
2023-02-24T22:38:33.504Z,28.70
2023-02-24T22:41:01.838Z,32.63
2023-02-24T22:43:29.847Z,36.95
2023-02-24T22:45:59.186Z,32.42
2023-02-24T22:48:27.828Z,36.83
2023-02-24T22:50:57.382Z,27.20
2023-02-24T22:53:25.877Z,33.28
2023-02-24T22:55:53.549Z,32.30
2023-02-24T22:58:21.959Z,34.70
2023-02-24T23:00:49.987Z,27.30
2023-02-24T23:03:23.930Z,33.63
2023-02-24T23:06:03.057Z,28.08
2023-02-24T23:08:34.265Z,29.95
2023-02-24T23:11:05.987Z,27.52
2023-02-24T23:13:35.448Z,33.33
2023-02-24T23:16:08.707Z,18.83
2023-02-24T23:18:37.251Z,31.77
2023-02-24T23:21:10.407Z,30.05
2023-02-24T23:23:38.578Z,35.55
2023-02-24T23:26:06.354Z,31.48
2023-02-24T23:28:34.052Z,29.98
2023-02-24T23:31:01.753Z,30.52
2023-02-24T23:33:29.472Z,32.05
2023-02-24T23:35:57.129Z,25.95
2023-02-24T23:38:24.494Z,30.73
2023-02-24T23:40:52.005Z,21.73
2023-02-24T23:43:19.775Z,28.70
2023-02-24T23:45:47.670Z,33.40
2023-02-24T23:48:15.804Z,25.42
2023-02-24T23:50:45.991Z,27.95
2023-02-24T23:55:41.526Z,37.85
2023-02-24T23:58:09.294Z,35.65
